createdAt,value
2023-03-29T00:00:13.980Z,-1.01
2023-03-29T00:03:02.599Z,-0.90
2023-03-29T00:05:33.851Z,-0.89
2023-03-29T00:08:04.775Z,-0.90
2023-03-29T00:10:33.663Z,-1.13
2023-03-29T00:13:01.908Z,-1.10
2023-03-29T00:15:29.228Z,-1.10
2023-03-29T00:17:57.529Z,-1.33
2023-03-29T00:20:24.603Z,-1.28
2023-03-29T00:22:51.941Z,-1.19
2023-03-29T00:25:18.941Z,-1.04
2023-03-29T00:27:46.969Z,-1.22
2023-03-29T00:30:14.905Z,-1.44
2023-03-29T00:32:42.931Z,-1.24
2023-03-29T00:35:11.016Z,-1.43
2023-03-29T00:37:38.346Z,-1.39
2023-03-29T00:40:10.354Z,-1.53
2023-03-29T00:42:38.224Z,-1.36
2023-03-29T00:45:08.258Z,-1.35
2023-03-29T00:48:03.449Z,-1.35
2023-03-29T00:50:39.444Z,-1.14
2023-03-29T00:53:15.031Z,-1.19
2023-03-29T00:55:54.412Z,-1.20
2023-03-29T00:58:28.444Z,-1.21
2023-03-29T01:01:04.055Z,-1.21
2023-03-29T01:03:41.376Z,-1.17
2023-03-29T01:06:10.698Z,-1.20
2023-03-29T01:08:45.395Z,-1.16
2023-03-29T01:11:22.275Z,-1.20
2023-03-29T01:13:58.572Z,-1.19
2023-03-29T01:16:28.697Z,-1.00
2023-03-29T01:19:00.423Z,-0.93
2023-03-29T01:21:45.138Z,-1.15
2023-03-29T01:24:33.345Z,-1.01
2023-03-29T01:27:29.757Z,-1.24
2023-03-29T01:30:02.092Z,-1.15
2023-03-29T01:32:48.876Z,-1.33
2023-03-29T01:35:22.749Z,-1.21
2023-03-29T01:38:07.245Z,-1.20
2023-03-29T01:40:34.823Z,-1.20
2023-03-29T01:43:20.251Z,-1.22
2023-03-29T01:45:50.378Z,-1.34
2023-03-29T01:48:26.586Z,-1.42
2023-03-29T01:50:58.457Z,-1.47
2023-03-29T01:53:35.945Z,-1.47
2023-03-29T01:56:11.773Z,-1.32
2023-03-29T01:58:44.824Z,-1.45
2023-03-29T02:01:17.771Z,-1.33
2023-03-29T02:03:50.859Z,-1.57
2023-03-29T02:06:23.759Z,-1.37
2023-03-29T02:08:52.512Z,-1.59
2023-03-29T02:11:22.044Z,-1.68
2023-03-29T02:13:49.104Z,-1.72
2023-03-29T02:16:16.932Z,-1.76
2023-03-29T02:18:46.991Z,-1.66
2023-03-29T02:21:26.724Z,-1.80
2023-03-29T02:23:56.817Z,-1.70
2023-03-29T02:26:24.667Z,-1.63
2023-03-29T02:28:53.115Z,-1.64
2023-03-29T02:31:37.346Z,-1.44
2023-03-29T02:34:28.289Z,-1.70
2023-03-29T02:37:00.394Z,-1.70
2023-03-29T02:39:32.173Z,-1.51
2023-03-29T02:41:59.908Z,-1.66
2023-03-29T02:44:30.376Z,-1.66
2023-03-29T02:47:07.782Z,-1.66
2023-03-29T02:49:34.879Z,-1.61
2023-03-29T02:52:09.202Z,-1.52
2023-03-29T02:54:42.968Z,-1.59
2023-03-29T02:57:10.842Z,-1.48
2023-03-29T02:59:44.048Z,-1.56
2023-03-29T03:02:11.947Z,-1.52
2023-03-29T03:04:39.767Z,-1.55
2023-03-29T03:07:07.046Z,-1.59
2023-03-29T03:09:35.489Z,-1.56
2023-03-29T03:12:02.990Z,-1.51
2023-03-29T03:14:30.416Z,-1.69
2023-03-29T03:17:01.748Z,-1.64
2023-03-29T03:19:30.611Z,-1.66
2023-03-29T03:21:58.274Z,-1.64
2023-03-29T03:24:25.296Z,-1.44
2023-03-29T03:26:52.545Z,-1.69
2023-03-29T03:29:19.687Z,-1.76
2023-03-29T03:32:05.853Z,-1.70
2023-03-29T03:34:44.835Z,-1.58
2023-03-29T03:37:12.365Z,-1.52
2023-03-29T03:39:39.904Z,-1.63
2023-03-29T03:42:09.321Z,-1.54
2023-03-29T03:44:41.928Z,-1.54
2023-03-29T03:47:31.757Z,-1.85
2023-03-29T03:50:13.776Z,-1.91
2023-03-29T03:52:41.172Z,-1.86
2023-03-29T03:55:09.488Z,-2.00
2023-03-29T03:57:43.970Z,-2.04
2023-03-29T04:00:19.400Z,-2.04
2023-03-29T04:02:57.133Z,-2.05
2023-03-29T04:05:24.643Z,-2.03
2023-03-29T04:07:52.550Z,-2.05
2023-03-29T04:10:39.906Z,-2.11
2023-03-29T04:13:19.067Z,-2.20
2023-03-29T04:16:21.513Z,-2.27
2023-03-29T04:18:49.670Z,-2.23
2023-03-29T04:21:18.781Z,-2.32
2023-03-29T04:23:48.886Z,-2.16
2023-03-29T04:26:17.736Z,-2.34
2023-03-29T04:28:48.236Z,-2.30
2023-03-29T04:31:23.442Z,-2.33
2023-03-29T04:34:19.736Z,-2.39
2023-03-29T04:36:50.339Z,-2.34
2023-03-29T04:39:21.783Z,-2.21
2023-03-29T04:41:54.331Z,-2.27
2023-03-29T04:44:26.874Z,-2.38
2023-03-29T04:46:54.622Z,-2.32
2023-03-29T04:49:40.966Z,-2.36
2023-03-29T04:52:13.676Z,-2.29
2023-03-29T04:54:41.050Z,-2.33
2023-03-29T04:57:18.795Z,-2.22
2023-03-29T04:59:59.586Z,-2.15
2023-03-29T05:02:58.821Z,-2.20
2023-03-29T05:05:27.959Z,-2.10
2023-03-29T05:07:57.165Z,-2.06
2023-03-29T05:10:31.662Z,-1.97
2023-03-29T05:12:58.843Z,-1.75
2023-03-29T05:15:27.166Z,-1.81
2023-03-29T05:17:54.851Z,-1.72
2023-03-29T05:20:22.277Z,-1.68
2023-03-29T05:22:50.158Z,-1.29
2023-03-29T05:25:37.380Z,-1.56
2023-03-29T05:28:04.766Z,-1.46
2023-03-29T05:30:32.313Z,-1.38
2023-03-29T05:33:14.191Z,-1.29
2023-03-29T05:35:41.781Z,-1.18
2023-03-29T05:38:09.204Z,-1.19
2023-03-29T05:40:37.145Z,-1.21
2023-03-29T05:43:27.201Z,-0.90
2023-03-29T05:45:56.362Z,-0.91
2023-03-29T05:48:25.124Z,-0.62
2023-03-29T05:50:55.141Z,-0.31
2023-03-29T05:53:24.475Z,-0.53
2023-03-29T05:55:52.303Z,-0.62
2023-03-29T05:58:22.155Z,-0.53
2023-03-29T06:00:51.456Z,-0.18
2023-03-29T06:03:46.322Z,-0.20
2023-03-29T06:06:16.403Z,-0.01
2023-03-29T06:08:44.709Z,0.01
2023-03-29T06:11:24.250Z,0.47
2023-03-29T06:14:18.949Z,0.34
2023-03-29T06:16:55.042Z,0.58
2023-03-29T06:19:22.800Z,0.51
2023-03-29T06:21:52.303Z,0.57
2023-03-29T06:24:25.092Z,0.58
2023-03-29T06:26:59.487Z,0.59
2023-03-29T06:29:26.965Z,0.48
2023-03-29T06:31:56.314Z,1.01
2023-03-29T06:34:43.778Z,1.01
2023-03-29T06:37:33.815Z,0.85
2023-03-29T06:40:13.841Z,0.84
2023-03-29T06:42:44.671Z,1.01
2023-03-29T06:45:37.007Z,0.87
2023-03-29T06:48:08.849Z,1.33
2023-03-29T06:50:36.479Z,1.57
2023-03-29T06:53:11.640Z,1.48
2023-03-29T06:55:41.274Z,1.65
2023-03-29T06:58:31.130Z,2.22
2023-03-29T07:01:05.630Z,2.07
2023-03-29T07:03:54.446Z,2.19
2023-03-29T07:06:28.482Z,2.18
2023-03-29T07:08:59.741Z,2.03
2023-03-29T07:11:41.702Z,2.45
2023-03-29T07:14:19.151Z,1.72
2023-03-29T07:16:48.767Z,2.14
2023-03-29T07:19:36.134Z,2.16
2023-03-29T07:22:29.544Z,2.18
2023-03-29T07:25:00.596Z,2.39
2023-03-29T07:27:28.297Z,2.48
2023-03-29T07:29:56.907Z,2.35
2023-03-29T07:32:24.705Z,2.27
2023-03-29T07:35:15.793Z,2.37
2023-03-29T07:37:44.802Z,2.60
2023-03-29T07:40:24.395Z,2.49
2023-03-29T07:42:58.782Z,2.56
2023-03-29T07:45:32.035Z,2.96
2023-03-29T07:48:19.655Z,3.00
2023-03-29T07:50:58.135Z,3.44
2023-03-29T07:53:34.238Z,3.61
2023-03-29T07:56:04.826Z,3.27
2023-03-29T07:58:55.151Z,3.52
2023-03-29T08:01:22.305Z,3.50
2023-03-29T08:04:08.449Z,3.27
2023-03-29T08:07:01.619Z,3.48
2023-03-29T08:09:49.089Z,4.25
2023-03-29T08:12:16.814Z,4.38
2023-03-29T08:14:44.133Z,4.16
2023-03-29T08:17:17.756Z,4.11
2023-03-29T08:19:51.316Z,4.47
2023-03-29T08:22:22.104Z,4.67
2023-03-29T08:25:09.393Z,5.02
2023-03-29T08:27:42.511Z,4.99
2023-03-29T08:30:12.049Z,4.62
2023-03-29T08:32:39.931Z,4.84
2023-03-29T08:35:09.656Z,4.92
2023-03-29T08:37:43.142Z,5.01
2023-03-29T08:40:21.731Z,5.10
2023-03-29T08:43:11.781Z,4.99
2023-03-29T08:46:38.342Z,5.42
2023-03-29T08:49:27.066Z,5.25
2023-03-29T08:52:05.271Z,4.69
2023-03-29T08:54:42.483Z,5.42
2023-03-29T08:57:21.876Z,5.48
2023-03-29T08:59:57.442Z,5.00
2023-03-29T09:02:28.076Z,5.01
2023-03-29T09:05:17.592Z,5.08
2023-03-29T09:07:54.504Z,6.13
2023-03-29T09:10:37.572Z,5.13
2023-03-29T09:13:25.192Z,5.70
2023-03-29T09:15:54.531Z,6.08
2023-03-29T09:19:01.464Z,6.59
2023-03-29T09:21:48.146Z,6.59
2023-03-29T09:24:54.160Z,6.03
2023-03-29T09:27:31.322Z,6.19
2023-03-29T09:31:01.647Z,7.01
2023-03-29T09:33:44.144Z,7.34
2023-03-29T09:36:25.895Z,6.55
2023-03-29T09:38:55.525Z,6.78
2023-03-29T09:41:41.202Z,6.39
2023-03-29T09:44:27.792Z,7.55
2023-03-29T09:47:09.590Z,6.00
2023-03-29T09:49:43.167Z,7.13
2023-03-29T09:52:16.830Z,6.71
2023-03-29T09:54:52.488Z,6.19
2023-03-29T09:58:00.668Z,6.50
2023-03-29T10:00:31.071Z,7.00
2023-03-29T10:03:00.250Z,7.09
2023-03-29T10:05:37.998Z,8.34
2023-03-29T10:08:20.052Z,6.88
2023-03-29T10:10:47.961Z,7.03
2023-03-29T10:13:43.588Z,7.58
2023-03-29T10:16:23.239Z,7.77
2023-03-29T10:18:51.098Z,7.30
2023-03-29T10:21:23.739Z,7.54
2023-03-29T10:23:59.305Z,7.42
2023-03-29T10:26:32.826Z,8.69
2023-03-29T10:29:06.173Z,7.25
2023-03-29T10:31:34.069Z,9.14
2023-03-29T10:34:05.878Z,9.66
2023-03-29T10:36:33.282Z,9.14
2023-03-29T10:39:05.598Z,8.91
2023-03-29T10:41:35.413Z,8.50
2023-03-29T10:44:03.421Z,8.88
2023-03-29T10:46:33.419Z,8.93
2023-03-29T10:49:06.015Z,8.18
2023-03-29T10:51:34.522Z,9.40
2023-03-29T10:54:03.372Z,8.39
2023-03-29T10:56:45.297Z,8.95
2023-03-29T10:59:33.660Z,8.25
2023-03-29T11:02:15.552Z,9.84
2023-03-29T11:05:06.038Z,9.12
2023-03-29T11:07:48.412Z,9.60
2023-03-29T11:10:40.439Z,8.88
2023-03-29T11:13:10.281Z,9.35
2023-03-29T11:16:02.716Z,9.46
2023-03-29T11:18:38.959Z,9.46
2023-03-29T11:21:12.551Z,8.47
2023-03-29T11:23:48.475Z,8.26
2023-03-29T11:26:29.963Z,8.60
2023-03-29T11:29:01.309Z,9.50
2023-03-29T11:31:53.689Z,9.02
2023-03-29T11:34:47.053Z,8.78
2023-03-29T11:37:31.996Z,8.52
2023-03-29T11:40:36.810Z,9.31
2023-03-29T11:43:11.076Z,8.75
2023-03-29T11:45:46.121Z,9.08
2023-03-29T11:48:21.206Z,7.97
2023-03-29T11:50:56.867Z,8.15
2023-03-29T11:53:37.090Z,7.99
2023-03-29T11:56:10.632Z,8.73
2023-03-29T11:58:42.592Z,8.88
2023-03-29T12:01:22.556Z,8.40
2023-03-29T12:03:55.718Z,8.78
2023-03-29T12:06:32.787Z,8.17
2023-03-29T12:09:30.062Z,8.60
2023-03-29T12:12:29.483Z,7.99
2023-03-29T12:15:11.339Z,7.79
2023-03-29T12:17:44.966Z,8.06
2023-03-29T12:20:28.370Z,8.25
2023-03-29T12:22:59.203Z,8.66
2023-03-29T12:26:02.432Z,8.72
2023-03-29T12:28:54.521Z,8.34
2023-03-29T12:31:39.909Z,8.53
2023-03-29T12:34:12.887Z,8.72
2023-03-29T12:37:13.458Z,9.67
2023-03-29T12:39:46.907Z,9.29
2023-03-29T12:42:33.233Z,8.90
2023-03-29T12:45:29.355Z,9.33
2023-03-29T12:47:57.708Z,8.81
2023-03-29T12:50:35.650Z,9.41
2023-03-29T12:53:07.480Z,9.11
2023-03-29T12:55:49.221Z,8.87
2023-03-29T12:58:30.698Z,9.16
2023-03-29T13:01:07.183Z,8.82
2023-03-29T13:03:48.850Z,9.34
2023-03-29T13:06:46.615Z,8.93
2023-03-29T13:09:36.749Z,9.58
2023-03-29T13:12:08.982Z,9.24
2023-03-29T13:14:42.678Z,9.48
2023-03-29T13:17:21.855Z,9.09
2023-03-29T13:19:56.287Z,8.60
2023-03-29T13:22:38.391Z,8.48
2023-03-29T13:25:18.160Z,8.34
2023-03-29T13:28:14.628Z,9.23
2023-03-29T13:30:48.407Z,8.35
2023-03-29T13:33:52.599Z,8.91
2023-03-29T13:36:44.423Z,8.74
2023-03-29T13:39:29.394Z,9.37
2023-03-29T13:42:08.240Z,8.97
2023-03-29T13:44:45.490Z,9.03
2023-03-29T13:47:29.240Z,9.07
2023-03-29T13:49:59.664Z,9.08
2023-03-29T13:52:34.461Z,8.40
2023-03-29T13:55:05.240Z,8.78
2023-03-29T13:57:56.968Z,8.90
2023-03-29T14:00:36.964Z,9.19
2023-03-29T14:03:09.613Z,8.74
2023-03-29T14:05:44.482Z,9.75
2023-03-29T14:08:26.595Z,8.85
2023-03-29T14:10:55.404Z,9.67
2023-03-29T14:13:25.433Z,8.60
2023-03-29T14:15:59.471Z,10.09
2023-03-29T14:18:32.578Z,9.80
2023-03-29T14:21:02.184Z,9.26
2023-03-29T14:23:33.694Z,8.51
2023-03-29T14:26:19.132Z,8.69
2023-03-29T14:28:49.885Z,9.40
2023-03-29T14:31:18.080Z,8.93
2023-03-29T14:33:45.623Z,8.64
2023-03-29T14:36:17.943Z,9.04
2023-03-29T14:38:51.191Z,8.61
2023-03-29T14:41:19.260Z,8.55
2023-03-29T14:45:06.013Z,8.28
2023-03-29T14:47:34.405Z,8.52
2023-03-29T14:50:02.720Z,8.34
2023-03-29T14:52:31.832Z,8.58
2023-03-29T14:55:02.271Z,8.21
2023-03-29T14:57:36.718Z,8.53
2023-03-29T15:00:27.048Z,8.18
2023-03-29T15:03:02.677Z,8.41
2023-03-29T15:05:37.737Z,8.59
2023-03-29T15:08:12.158Z,8.45
2023-03-29T15:10:42.923Z,8.40
2023-03-29T15:13:19.732Z,8.42
2023-03-29T15:15:51.212Z,8.35
2023-03-29T15:18:22.851Z,8.45
2023-03-29T15:20:51.391Z,8.42
2023-03-29T15:23:22.510Z,8.39
2023-03-29T15:25:58.924Z,8.24
2023-03-29T15:28:28.395Z,8.32
2023-03-29T15:31:08.165Z,8.32
2023-03-29T15:33:39.461Z,8.36
2023-03-29T15:36:09.095Z,8.68
2023-03-29T15:38:44.058Z,8.26
2023-03-29T15:41:14.753Z,8.05
2023-03-29T15:43:43.475Z,8.24
2023-03-29T15:46:13.645Z,8.12
2023-03-29T15:48:42.817Z,8.24
2023-03-29T15:51:14.466Z,8.19
2023-03-29T15:53:42.786Z,7.96
2023-03-29T15:56:16.947Z,7.90
2023-03-29T15:58:47.903Z,8.32
2023-03-29T16:01:37.749Z,8.09
2023-03-29T16:04:15.021Z,8.06
2023-03-29T16:06:44.990Z,8.51
2023-03-29T16:09:13.266Z,7.87
2023-03-29T16:11:42.542Z,7.86
2023-03-29T16:14:23.299Z,7.90
2023-03-29T16:16:52.148Z,8.13
2023-03-29T16:19:20.532Z,8.01
2023-03-29T16:21:48.635Z,7.68
2023-03-29T16:24:22.355Z,7.75
2023-03-29T16:26:51.704Z,8.26
2023-03-29T16:29:20.757Z,8.06
2023-03-29T16:31:49.295Z,7.79
2023-03-29T16:34:19.226Z,7.75
2023-03-29T16:36:47.860Z,7.72
2023-03-29T16:39:16.227Z,7.81
2023-03-29T16:41:45.376Z,7.68
2023-03-29T16:44:16.285Z,7.65
2023-03-29T16:46:43.971Z,7.69
2023-03-29T16:49:18.280Z,7.79
2023-03-29T16:51:47.382Z,7.65
2023-03-29T16:54:17.339Z,7.77
2023-03-29T16:56:45.799Z,7.43
2023-03-29T16:59:14.181Z,7.67
2023-03-29T17:01:42.407Z,7.42
2023-03-29T17:04:10.595Z,7.50
2023-03-29T17:06:38.095Z,7.46
2023-03-29T17:09:06.268Z,7.40
2023-03-29T17:11:34.623Z,7.61
2023-03-29T17:14:02.632Z,7.30
2023-03-29T17:16:30.544Z,7.47
2023-03-29T17:19:00.613Z,7.24
2023-03-29T17:21:29.023Z,7.60
2023-03-29T17:23:57.139Z,7.31
2023-03-29T17:26:25.257Z,7.36
2023-03-29T17:28:53.388Z,7.05
2023-03-29T17:31:21.661Z,7.30
2023-03-29T17:33:52.361Z,7.00
2023-03-29T17:36:24.049Z,7.09
2023-03-29T17:38:52.632Z,7.39
2023-03-29T17:41:21.669Z,6.97
2023-03-29T17:43:51.040Z,7.15
2023-03-29T17:46:22.997Z,7.09
2023-03-29T17:48:52.404Z,7.03
2023-03-29T17:51:20.754Z,7.03
2023-03-29T17:53:48.913Z,7.11
2023-03-29T17:56:16.535Z,6.95
2023-03-29T17:58:44.766Z,6.87
2023-03-29T18:01:14.373Z,6.96
2023-03-29T18:03:42.607Z,7.08
2023-03-29T18:06:10.243Z,7.05
2023-03-29T18:08:38.751Z,6.96
2023-03-29T18:11:11.883Z,6.89
2023-03-29T18:13:40.021Z,7.19
2023-03-29T18:16:08.926Z,7.13
2023-03-29T18:18:37.519Z,6.81
2023-03-29T18:21:06.918Z,6.94
2023-03-29T18:23:35.899Z,7.01
2023-03-29T18:26:04.932Z,7.04
2023-03-29T18:28:34.194Z,7.00
2023-03-29T18:31:01.678Z,7.07
2023-03-29T18:33:30.337Z,7.13
2023-03-29T18:35:57.548Z,6.89
2023-03-29T18:38:25.700Z,7.10
2023-03-29T18:40:53.070Z,6.90
2023-03-29T18:43:21.448Z,6.90
2023-03-29T18:45:49.225Z,6.96
2023-03-29T18:48:16.904Z,6.73
2023-03-29T18:50:47.784Z,7.20
2023-03-29T18:53:15.979Z,6.82
2023-03-29T18:55:44.299Z,6.70
2023-03-29T18:58:16.619Z,6.56
2023-03-29T19:00:44.567Z,6.58
2023-03-29T19:03:14.874Z,6.55
2023-03-29T19:05:43.730Z,6.71
2023-03-29T19:08:11.934Z,6.31
2023-03-29T19:10:40.465Z,6.62
2023-03-29T19:13:09.432Z,6.35
2023-03-29T19:15:37.007Z,6.50
2023-03-29T19:18:07.826Z,6.52
2023-03-29T19:20:37.023Z,6.25
2023-03-29T19:23:05.257Z,6.51
2023-03-29T19:25:33.874Z,6.36
2023-03-29T19:28:04.286Z,6.45
2023-03-29T19:30:31.991Z,6.18
2023-03-29T19:32:59.867Z,6.39
2023-03-29T19:35:27.553Z,6.54
2023-03-29T19:37:55.642Z,6.79
2023-03-29T19:40:24.483Z,6.73
2023-03-29T19:42:52.570Z,6.63
2023-03-29T19:45:21.793Z,6.33
2023-03-29T19:47:57.338Z,6.46
2023-03-29T19:50:26.404Z,6.55
2023-03-29T19:52:54.834Z,6.48
2023-03-29T19:55:22.957Z,6.58
2023-03-29T19:57:55.553Z,6.55
2023-03-29T20:00:25.324Z,6.45
2023-03-29T20:02:54.211Z,6.63
2023-03-29T20:05:24.385Z,6.44
2023-03-29T20:07:53.001Z,6.51
2023-03-29T20:10:21.355Z,6.14
2023-03-29T20:12:54.338Z,6.17
2023-03-29T20:15:27.179Z,6.30
2023-03-29T20:18:02.708Z,6.67
2023-03-29T20:20:31.829Z,6.12
2023-03-29T20:23:04.947Z,6.17
2023-03-29T20:25:35.713Z,6.14
2023-03-29T20:28:04.006Z,6.24
2023-03-29T20:30:31.313Z,6.18
2023-03-29T20:32:58.747Z,6.23
2023-03-29T20:35:26.138Z,6.49
2023-03-29T20:37:53.844Z,6.34
2023-03-29T20:40:21.412Z,6.27
2023-03-29T20:42:49.181Z,6.07
2023-03-29T20:45:19.379Z,6.14
2023-03-29T20:47:57.658Z,6.48
2023-03-29T20:50:28.760Z,6.38
2023-03-29T20:52:56.936Z,6.56
2023-03-29T20:55:24.640Z,6.64
2023-03-29T20:57:59.827Z,6.69
2023-03-29T21:00:29.397Z,6.57
2023-03-29T21:03:01.161Z,6.76
2023-03-29T21:05:30.828Z,6.58
2023-03-29T21:07:58.347Z,6.64
2023-03-29T21:10:26.783Z,6.63
2023-03-29T21:12:54.705Z,6.15
2023-03-29T21:15:22.442Z,6.43
2023-03-29T21:17:50.145Z,6.49
2023-03-29T21:20:17.568Z,6.28
2023-03-29T21:22:44.989Z,6.22
2023-03-29T21:25:15.577Z,6.28
2023-03-29T21:27:43.468Z,6.26
2023-03-29T21:30:11.238Z,6.33
2023-03-29T21:32:38.862Z,6.34
2023-03-29T21:35:06.958Z,6.15
2023-03-29T21:37:34.325Z,6.31
2023-03-29T21:40:05.695Z,6.20
2023-03-29T21:42:34.372Z,6.44
2023-03-29T21:45:02.097Z,6.27
2023-03-29T21:47:31.143Z,6.63
2023-03-29T21:49:58.377Z,6.32
2023-03-29T21:52:26.077Z,6.42
2023-03-29T21:54:53.406Z,6.26
2023-03-29T21:57:21.145Z,6.41
2023-03-29T21:59:48.590Z,6.28
2023-03-29T22:02:17.140Z,6.35
2023-03-29T22:04:44.803Z,6.56
2023-03-29T22:07:12.378Z,6.30
2023-03-29T22:09:41.517Z,6.32
2023-03-29T22:12:10.083Z,6.32
2023-03-29T22:14:37.480Z,6.37
2023-03-29T22:17:08.335Z,6.48
2023-03-29T22:19:38.875Z,6.50
2023-03-29T22:22:13.576Z,6.28
2023-03-29T22:24:42.268Z,6.39
2023-03-29T22:27:11.154Z,6.37
2023-03-29T22:29:38.302Z,6.46
2023-03-29T22:32:05.934Z,6.47
2023-03-29T22:34:33.485Z,6.41
2023-03-29T22:37:00.924Z,6.36
2023-03-29T22:39:28.548Z,6.45
2023-03-29T22:41:56.293Z,6.39
2023-03-29T22:44:23.369Z,6.55
2023-03-29T22:46:51.678Z,6.39
2023-03-29T22:49:18.729Z,6.45
2023-03-29T22:51:46.240Z,6.42
2023-03-29T22:54:13.339Z,6.49
2023-03-29T22:56:40.744Z,6.55
2023-03-29T22:59:07.906Z,6.58
2023-03-29T23:01:35.368Z,6.28
2023-03-29T23:04:02.464Z,6.58
2023-03-29T23:06:30.089Z,6.31
2023-03-29T23:08:57.175Z,6.55
2023-03-29T23:11:24.638Z,6.53
2023-03-29T23:13:52.573Z,6.41
2023-03-29T23:16:22.833Z,6.26
2023-03-29T23:18:49.687Z,6.24
2023-03-29T23:21:17.153Z,6.32
2023-03-29T23:23:44.707Z,6.35
2023-03-29T23:26:12.259Z,6.26
2023-03-29T23:28:41.053Z,6.22
2023-03-29T23:31:13.976Z,6.34
2023-03-29T23:33:42.609Z,6.37
2023-03-29T23:36:13.548Z,6.39
2023-03-29T23:38:42.283Z,6.29
2023-03-29T23:41:12.858Z,6.26
2023-03-29T23:43:43.044Z,6.04
2023-03-29T23:46:15.662Z,6.14
2023-03-29T23:48:47.355Z,6.15
2023-03-29T23:51:18.103Z,6.30
2023-03-29T23:53:45.122Z,6.23
2023-03-29T23:56:12.489Z,6.25
2023-03-29T23:58:39.635Z,6.18
